createdAt,value
2023-04-12T00:09:50.510Z,34
2023-04-12T00:19:50.432Z,40
2023-04-12T00:29:50.294Z,50
2023-04-12T00:39:50.241Z,53
2023-04-12T00:49:50.194Z,52
2023-04-12T00:59:50.169Z,52
2023-04-12T01:09:50.022Z,62
2023-04-12T01:19:50.003Z,67
2023-04-12T01:29:49.918Z,72
2023-04-12T01:39:49.755Z,68
2023-04-12T01:49:49.757Z,75
2023-04-12T01:59:49.626Z,84
2023-04-12T02:09:49.735Z,84
2023-04-12T02:19:49.586Z,80
2023-04-12T02:29:49.577Z,91
2023-04-12T02:39:49.319Z,69
2023-04-12T02:49:49.261Z,66
2023-04-12T02:59:49.175Z,89
2023-04-12T03:09:49.188Z,99
2023-04-12T03:19:49.125Z,76
2023-04-12T03:29:49.059Z,79
2023-04-12T03:39:48.934Z,78
2023-04-12T03:50:01.785Z,86
2023-04-12T03:59:48.932Z,72
2023-04-12T04:09:48.773Z,75
2023-04-12T04:19:48.605Z,81
2023-04-12T04:29:48.772Z,99
2023-04-12T04:39:48.532Z,99
2023-04-12T04:49:48.405Z,99
2023-04-12T04:59:48.391Z,99
2023-04-12T05:09:48.285Z,99
2023-04-12T05:19:48.255Z,99
2023-04-12T05:29:48.170Z,99
2023-04-12T05:39:48.041Z,99
2023-04-12T05:49:48.011Z,99
2023-04-12T05:59:47.990Z,99
2023-04-12T06:09:47.858Z,99
2023-04-12T06:19:47.780Z,99
2023-04-12T06:29:47.775Z,99
2023-04-12T06:39:47.716Z,99
2023-04-12T06:49:47.542Z,99
2023-04-12T06:59:47.548Z,99
2023-04-12T07:09:47.435Z,99
2023-04-12T07:19:47.364Z,99
2023-04-12T07:29:47.419Z,99
2023-04-12T07:39:47.274Z,99
2023-04-12T07:49:47.267Z,99
2023-04-12T07:59:47.050Z,99
2023-04-12T08:09:46.958Z,99
2023-04-12T08:19:46.990Z,99
2023-04-12T08:29:46.805Z,99
2023-04-12T08:39:46.740Z,99
2023-04-12T08:49:46.742Z,99
2023-04-12T08:59:46.676Z,99
2023-04-12T09:09:46.794Z,99
2023-04-12T09:19:46.453Z,99
2023-04-12T09:29:46.405Z,99
2023-04-12T09:39:46.305Z,1
2023-04-12T09:49:46.273Z,1
2023-04-12T09:59:46.180Z,1
2023-04-12T10:09:46.132Z,1
2023-04-12T10:19:46.130Z,1
2023-04-12T10:29:46.140Z,1
2023-04-12T10:39:45.986Z,1
2023-04-12T10:49:45.916Z,1
2023-04-12T10:59:47.846Z,1
2023-04-12T11:09:45.800Z,1
2023-04-12T11:19:46.141Z,1
2023-04-12T11:29:45.589Z,1
2023-04-12T11:39:45.540Z,1
2023-04-12T11:49:45.396Z,1
2023-04-12T11:59:45.427Z,1
2023-04-12T12:09:46.333Z,1
2023-04-12T12:19:45.336Z,1
2023-04-12T12:29:45.322Z,1
2023-04-12T12:39:45.064Z,1
2023-04-12T12:49:45.140Z,1
2023-04-12T12:59:45.004Z,1
2023-04-12T13:09:44.912Z,1
2023-04-12T13:19:45.596Z,1
2023-04-12T13:29:44.794Z,1
2023-04-12T13:39:44.688Z,1
2023-04-12T13:49:44.610Z,1
2023-04-12T13:59:44.608Z,1
2023-04-12T14:09:44.516Z,1
2023-04-12T14:19:44.459Z,1
2023-04-12T14:29:44.390Z,1
2023-04-12T14:39:44.346Z,1
2023-04-12T14:49:44.159Z,1
2023-04-12T14:59:44.176Z,1
2023-04-12T15:09:44.125Z,1
2023-04-12T15:19:44.047Z,1
2023-04-12T15:29:43.885Z,1
2023-04-12T15:39:44.012Z,1
2023-04-12T15:49:43.805Z,1
2023-04-12T15:59:43.759Z,1
2023-04-12T16:09:43.812Z,1
2023-04-12T16:19:43.631Z,1
2023-04-12T16:29:43.458Z,1
2023-04-12T16:39:43.473Z,1
2023-04-12T16:49:43.317Z,1
2023-04-12T16:59:43.238Z,1
2023-04-12T17:09:43.185Z,1
2023-04-12T17:19:43.117Z,1
2023-04-12T17:29:43.053Z,1
2023-04-12T17:39:43.060Z,1
2023-04-12T17:49:42.880Z,1
2023-04-12T17:59:42.913Z,1
2023-04-12T18:09:42.834Z,1
2023-04-12T18:19:42.778Z,1
2023-04-12T18:29:42.610Z,1
2023-04-12T18:39:42.651Z,1
2023-04-12T18:49:42.558Z,1
2023-04-12T18:59:42.517Z,1
2023-04-12T19:09:42.486Z,1
2023-04-12T19:19:42.452Z,1
2023-04-12T19:29:42.211Z,1
2023-04-12T19:39:42.139Z,1
2023-04-12T19:49:42.102Z,1
2023-04-12T19:59:42.044Z,1
2023-04-12T20:09:41.950Z,1
2023-04-12T20:19:41.901Z,1
2023-04-12T20:29:41.815Z,1
2023-04-12T20:39:41.757Z,1
2023-04-12T20:49:41.654Z,1
2023-04-12T20:59:41.568Z,1
2023-04-12T21:09:41.551Z,1
2023-04-12T21:19:41.474Z,1
2023-04-12T21:29:41.712Z,1
2023-04-12T21:39:41.278Z,1
2023-04-12T21:49:41.240Z,1
2023-04-12T21:59:41.174Z,1
2023-04-12T22:09:41.173Z,1
2023-04-12T22:19:41.151Z,99
2023-04-12T22:29:40.976Z,99
2023-04-12T22:39:40.903Z,99
2023-04-12T22:49:40.873Z,99
2023-04-12T22:59:40.848Z,99
2023-04-12T23:09:40.719Z,99
2023-04-12T23:19:40.660Z,99
2023-04-12T23:29:40.471Z,82
2023-04-12T23:39:40.556Z,99
2023-04-12T23:49:40.341Z,99
2023-04-12T23:59:40.319Z,74
